Red Rock, New York
Current Conditions -  °F | °C
As of 9:54 AM on Wednesday 22 Oct 2014 (Local Time) from KPSF Reporting Station
Overcast Overcast  
Wind Chill: 50°   Ceiling: 1300
Heat Index: 50°   Visibility: 10mi
Dew Point: 45°   Wind: 15mph
Humidity: 83%   Direction: 50°NE
Pressure: 30.03"   Gusts: 22mph
Location:  42.4273°N, 73.4886°W
Report Text: KPSF 221354Z AUTO 05013G19KT 10SM OVC013 10/07 A3003 RMK AO2 SLP163 T01000072
Loading
Personal Weather Stations






























Interactive Weather Map
Tropical Storm Tracking
New forecast layout! Learn more

10-Day Weather Forecast

Advertisements
Track Severe Weather on mobile